createdAt,value
2018-12-23T00:01:46.909Z,2.10
2018-12-23T00:04:14.349Z,2.03
2018-12-23T00:06:41.774Z,1.87
2018-12-23T00:09:09.207Z,2.30
2018-12-23T00:11:36.635Z,2.30
2018-12-23T00:14:04.068Z,2.17
2018-12-23T00:16:32.348Z,2.90
2018-12-23T00:18:59.785Z,2.17
2018-12-23T00:21:27.213Z,2.30
2018-12-23T00:23:54.736Z,2.30
2018-12-23T00:26:22.156Z,2.17
2018-12-23T00:28:49.588Z,2.10
2018-12-23T00:31:17.029Z,2.17
2018-12-23T00:33:44.496Z,2.70
2018-12-23T00:36:11.924Z,1.72
2018-12-23T00:38:39.353Z,2.30
2018-12-23T00:41:06.795Z,1.92
2018-12-23T00:43:34.216Z,2.00
2018-12-23T00:46:01.648Z,2.17
2018-12-23T00:48:29.181Z,1.93
2018-12-23T00:50:56.619Z,2.10
2018-12-23T00:53:24.041Z,2.13
2018-12-23T00:55:51.470Z,2.30
2018-12-23T00:58:18.900Z,2.10
2018-12-23T01:00:46.352Z,1.85
2018-12-23T01:03:13.932Z,1.83
2018-12-23T01:05:41.368Z,1.98
2018-12-23T01:08:09.025Z,1.47
2018-12-23T01:10:36.504Z,2.10
2018-12-23T01:13:03.928Z,1.50
2018-12-23T01:15:31.374Z,1.93
2018-12-23T01:17:58.821Z,1.57
2018-12-23T01:20:26.264Z,1.77
2018-12-23T01:22:53.689Z,1.50
2018-12-23T01:25:21.119Z,1.60
2018-12-23T01:27:48.615Z,1.52
2018-12-23T01:30:16.043Z,1.60
2018-12-23T01:32:43.520Z,1.75
2018-12-23T01:35:10.962Z,1.50
2018-12-23T01:37:38.388Z,1.80
2018-12-23T01:40:05.816Z,1.80
2018-12-23T01:42:33.245Z,1.50
2018-12-23T01:45:00.699Z,1.87
2018-12-23T01:47:28.197Z,1.70
2018-12-23T01:49:55.644Z,2.00
2018-12-23T01:52:23.068Z,2.05
2018-12-23T01:54:50.501Z,1.70
2018-12-23T01:57:17.931Z,1.90
2018-12-23T01:59:45.364Z,1.97
2018-12-23T02:02:12.788Z,2.10
2018-12-23T02:04:40.229Z,1.70
2018-12-23T02:07:07.661Z,2.02
2018-12-23T02:09:35.093Z,2.23
2018-12-23T02:12:02.521Z,1.77
2018-12-23T02:14:29.966Z,1.87
2018-12-23T02:16:57.397Z,1.80
2018-12-23T02:19:24.958Z,2.00
2018-12-23T02:21:52.600Z,1.60
2018-12-23T02:24:20.072Z,2.03
2018-12-23T02:26:47.508Z,1.77
2018-12-23T02:29:14.957Z,1.97
2018-12-23T02:31:42.397Z,1.93
2018-12-23T02:34:09.824Z,1.77
2018-12-23T02:36:37.283Z,1.90
2018-12-23T02:39:04.945Z,2.20
2018-12-23T02:41:32.384Z,2.00
2018-12-23T02:43:59.821Z,2.20
2018-12-23T02:46:27.251Z,2.70
2018-12-23T02:48:55.280Z,2.23
2018-12-23T02:51:22.729Z,2.40
2018-12-23T02:53:50.224Z,2.22
2018-12-23T02:56:17.695Z,2.30
2018-12-23T02:58:45.115Z,2.33
2018-12-23T03:01:12.548Z,2.17
2018-12-23T03:03:39.989Z,2.87
2018-12-23T03:06:07.418Z,2.60
2018-12-23T03:08:34.851Z,2.65
2018-12-23T03:11:02.338Z,2.60
2018-12-23T03:13:29.766Z,3.17
2018-12-23T03:15:57.200Z,2.83
2018-12-23T03:18:24.639Z,2.67
2018-12-23T03:20:52.175Z,3.13
2018-12-23T03:23:19.602Z,3.02
2018-12-23T03:25:47.041Z,2.63
2018-12-23T03:28:14.472Z,2.70
2018-12-23T03:30:41.999Z,3.03
2018-12-23T03:33:09.437Z,2.80
2018-12-23T03:35:36.949Z,3.30
2018-12-23T03:38:04.380Z,3.00
2018-12-23T03:40:31.809Z,3.17
2018-12-23T03:42:59.249Z,3.05
2018-12-23T03:45:26.744Z,3.83
2018-12-23T03:47:54.180Z,3.33
2018-12-23T03:50:21.613Z,2.97
2018-12-23T03:52:49.054Z,3.27
2018-12-23T03:55:16.477Z,3.40
2018-12-23T03:57:43.913Z,3.53
2018-12-23T04:00:11.341Z,3.80
2018-12-23T04:02:38.776Z,3.80
2018-12-23T04:05:06.222Z,4.30
2018-12-23T04:07:33.661Z,4.15
2018-12-23T04:10:01.096Z,4.40
2018-12-23T04:12:28.533Z,3.37
2018-12-23T04:14:55.968Z,3.87
2018-12-23T04:17:23.409Z,4.05
2018-12-23T04:19:50.837Z,4.93
2018-12-23T04:22:18.265Z,3.65
2018-12-23T04:24:45.763Z,4.23
2018-12-23T04:27:13.192Z,4.45
2018-12-23T04:29:40.678Z,4.97
2018-12-23T04:32:08.223Z,5.28
2018-12-23T04:34:35.796Z,4.70
2018-12-23T04:37:03.237Z,4.00
2018-12-23T04:39:31.441Z,3.55
2018-12-23T04:41:58.939Z,3.87
2018-12-23T04:44:26.373Z,4.33
2018-12-23T04:46:53.930Z,4.50
2018-12-23T04:49:21.571Z,4.00
2018-12-23T04:51:49.006Z,4.20
2018-12-23T04:54:16.513Z,4.47
2018-12-23T04:56:44.045Z,3.83
2018-12-23T04:59:11.476Z,4.30
2018-12-23T05:01:38.960Z,4.17
2018-12-23T05:04:06.385Z,4.07
2018-12-23T05:06:43.048Z,4.20
2018-12-23T05:09:04.632Z,4.00
2018-12-23T05:11:32.064Z,4.10
2018-12-23T05:13:59.509Z,4.37
2018-12-23T05:16:26.940Z,4.30
2018-12-23T05:18:54.368Z,3.75
2018-12-23T05:21:21.797Z,4.37
2018-12-23T05:23:49.237Z,3.45
2018-12-23T05:26:16.705Z,3.23
2018-12-23T05:28:44.168Z,2.70
2018-12-23T05:31:11.600Z,2.87
2018-12-23T05:33:39.037Z,2.30
2018-12-23T05:36:06.488Z,3.37
2018-12-23T05:38:33.920Z,2.55
2018-12-23T05:41:01.368Z,2.80
2018-12-23T05:43:28.909Z,2.62
2018-12-23T05:45:56.363Z,2.73
2018-12-23T05:48:23.930Z,2.60
2018-12-23T05:50:51.372Z,2.40
2018-12-23T05:53:18.846Z,2.73
2018-12-23T05:55:46.301Z,2.72
2018-12-23T05:58:13.757Z,3.07
2018-12-23T06:00:41.204Z,2.40
2018-12-23T06:03:08.650Z,2.67
2018-12-23T06:05:36.146Z,2.27
2018-12-23T06:08:03.585Z,2.17
2018-12-23T06:10:31.084Z,2.20
2018-12-23T06:12:58.522Z,2.23
2018-12-23T06:15:25.953Z,2.47
2018-12-23T06:17:53.380Z,2.03
2018-12-23T06:20:20.812Z,2.37
2018-12-23T06:22:48.241Z,2.23
2018-12-23T06:25:15.680Z,2.45
2018-12-23T06:27:43.118Z,2.27
2018-12-23T06:30:10.549Z,2.13
2018-12-23T06:32:37.981Z,1.90
2018-12-23T06:35:05.407Z,1.85
2018-12-23T06:37:32.845Z,2.20
2018-12-23T06:40:00.272Z,2.15
2018-12-23T06:42:27.705Z,1.60
2018-12-23T06:44:55.128Z,1.80
2018-12-23T06:47:22.560Z,1.67
2018-12-23T06:49:49.992Z,1.70
2018-12-23T06:52:17.518Z,1.50
2018-12-23T06:54:44.957Z,1.90
2018-12-23T06:57:12.436Z,1.80
2018-12-23T06:59:39.856Z,1.85
2018-12-23T07:02:07.306Z,2.20
2018-12-23T07:04:34.727Z,1.77
2018-12-23T07:07:02.152Z,1.93
2018-12-23T07:09:29.586Z,2.05
2018-12-23T07:11:57.066Z,2.43
2018-12-23T07:14:24.492Z,1.72
2018-12-23T07:16:51.950Z,2.20
2018-12-23T07:19:19.384Z,2.37
2018-12-23T07:21:47.688Z,1.70
2018-12-23T07:24:15.624Z,2.27
2018-12-23T07:26:43.757Z,1.80
2018-12-23T07:29:11.282Z,2.17
2018-12-23T07:31:38.703Z,2.13
2018-12-23T07:34:06.133Z,2.27
2018-12-23T07:36:33.597Z,3.60
2018-12-23T07:39:01.073Z,2.67
2018-12-23T07:41:28.496Z,2.92
2018-12-23T07:43:55.933Z,2.97
2018-12-23T07:46:24.152Z,2.42
2018-12-23T07:48:51.600Z,2.93
2018-12-23T07:51:19.025Z,2.93
2018-12-23T07:53:46.457Z,3.27
2018-12-23T07:56:13.896Z,3.23
2018-12-23T07:58:41.341Z,3.10
2018-12-23T08:01:08.777Z,3.58
2018-12-23T08:03:36.185Z,3.37
2018-12-23T08:06:03.617Z,3.02
2018-12-23T08:08:31.037Z,2.80
2018-12-23T08:10:59.044Z,2.65
2018-12-23T08:13:26.487Z,3.03
2018-12-23T08:15:53.915Z,2.87
2018-12-23T08:18:21.345Z,2.90
2018-12-23T08:20:48.782Z,2.25
2018-12-23T08:23:16.209Z,2.63
2018-12-23T08:25:43.645Z,3.05
2018-12-23T08:28:11.171Z,2.47
2018-12-23T08:30:38.684Z,2.92
2018-12-23T08:33:06.128Z,3.00
2018-12-23T08:35:33.561Z,2.85
2018-12-23T08:38:01.005Z,2.57
2018-12-23T08:40:28.434Z,2.40
2018-12-23T08:42:55.893Z,2.50
2018-12-23T08:45:23.344Z,2.72
2018-12-23T08:47:50.789Z,2.43
2018-12-23T08:50:18.221Z,2.72
2018-12-23T08:52:45.664Z,2.40
2018-12-23T08:55:13.096Z,3.10
2018-12-23T08:57:40.546Z,2.87
2018-12-23T09:00:08.021Z,2.47
2018-12-23T09:02:35.466Z,2.50
2018-12-23T09:05:02.919Z,4.10
2018-12-23T09:07:30.359Z,2.87
2018-12-23T09:09:57.799Z,2.55
2018-12-23T09:12:25.240Z,3.00
2018-12-23T09:14:52.668Z,3.00
2018-12-23T09:17:20.100Z,2.90
2018-12-23T09:19:47.540Z,2.25
2018-12-23T09:22:14.985Z,2.87
2018-12-23T09:24:42.427Z,2.17
2018-12-23T09:27:09.872Z,2.30
2018-12-23T09:29:37.322Z,2.12
2018-12-23T09:32:04.765Z,2.37
2018-12-23T09:34:32.197Z,2.37
2018-12-23T09:36:59.770Z,2.53
2018-12-23T09:39:27.207Z,2.42
2018-12-23T09:41:54.631Z,2.33
2018-12-23T09:44:22.078Z,1.73
2018-12-23T09:46:49.513Z,2.20
2018-12-23T09:49:17.054Z,2.05
2018-12-23T09:51:44.486Z,1.80
2018-12-23T09:54:11.928Z,2.17
2018-12-23T09:56:39.360Z,2.00
2018-12-23T09:59:06.792Z,2.17
2018-12-23T10:01:34.227Z,2.10
2018-12-23T10:04:01.664Z,1.98
2018-12-23T10:06:29.103Z,1.87
2018-12-23T10:08:56.540Z,1.90
2018-12-23T10:11:23.968Z,2.20
2018-12-23T10:13:51.405Z,1.98
2018-12-23T10:16:18.845Z,2.13
2018-12-23T10:18:46.292Z,2.08
2018-12-23T10:21:13.720Z,2.20
2018-12-23T10:23:41.159Z,2.17
2018-12-23T10:26:08.602Z,2.30
2018-12-23T10:28:36.048Z,2.27
2018-12-23T10:31:03.474Z,2.03
2018-12-23T10:33:30.917Z,2.17
2018-12-23T10:35:58.352Z,2.07
2018-12-23T10:38:25.840Z,2.75
2018-12-23T10:40:53.277Z,1.97
2018-12-23T10:43:20.720Z,1.82
2018-12-23T10:45:48.157Z,1.97
2018-12-23T10:48:15.589Z,1.90
2018-12-23T10:50:43.021Z,2.00
2018-12-23T10:53:10.458Z,1.95
2018-12-23T10:55:37.889Z,1.90
2018-12-23T10:58:05.320Z,1.80
2018-12-23T11:00:32.784Z,1.70
2018-12-23T11:03:00.225Z,2.20
2018-12-23T11:05:27.662Z,2.17
2018-12-23T11:07:55.084Z,2.52
2018-12-23T11:10:22.531Z,2.20
2018-12-23T11:12:49.957Z,2.37
2018-12-23T11:15:17.384Z,2.53
2018-12-23T11:17:44.893Z,2.37
2018-12-23T11:20:12.326Z,2.40
2018-12-23T11:22:39.764Z,2.20
2018-12-23T11:25:07.217Z,2.00
2018-12-23T11:27:34.743Z,2.12
2018-12-23T11:30:02.172Z,2.33
2018-12-23T11:32:29.614Z,1.85
2018-12-23T11:34:57.097Z,2.00
2018-12-23T11:37:24.532Z,1.82
2018-12-23T11:39:51.965Z,2.63
2018-12-23T11:42:19.408Z,2.13
2018-12-23T11:44:46.836Z,2.10
2018-12-23T11:47:14.259Z,2.30
2018-12-23T11:49:41.700Z,2.30
2018-12-23T11:52:09.132Z,2.22
2018-12-23T11:54:36.581Z,1.90
2018-12-23T11:57:04.019Z,2.15
2018-12-23T11:59:31.492Z,2.20
2018-12-23T12:01:58.966Z,2.10
2018-12-23T12:04:26.481Z,2.00
2018-12-23T12:06:53.917Z,2.37
2018-12-23T12:09:21.393Z,2.33
2018-12-23T12:11:50.936Z,2.60
2018-12-23T12:14:18.233Z,2.10
2018-12-23T12:16:45.673Z,1.75
2018-12-23T12:19:13.121Z,1.87
2018-12-23T12:21:40.548Z,1.98
2018-12-23T12:24:07.977Z,2.30
2018-12-23T12:26:35.421Z,2.10
2018-12-23T12:29:02.866Z,2.00
2018-12-23T12:31:30.308Z,1.93
2018-12-23T12:33:57.741Z,2.50
2018-12-23T12:36:25.207Z,2.17
2018-12-23T12:38:52.694Z,2.27
2018-12-23T12:41:20.189Z,1.80
2018-12-23T12:43:47.626Z,2.37
2018-12-23T12:46:15.062Z,1.80
2018-12-23T12:48:42.560Z,2.07
2018-12-23T12:51:09.997Z,2.02
2018-12-23T12:53:37.482Z,1.80
2018-12-23T12:56:05.123Z,1.70
2018-12-23T12:58:32.603Z,1.83
2018-12-23T13:01:00.028Z,1.93
2018-12-23T13:03:27.637Z,1.47
2018-12-23T13:05:55.083Z,1.97
2018-12-23T13:08:22.532Z,2.15
2018-12-23T13:10:49.972Z,1.87
2018-12-23T13:13:17.480Z,1.70
2018-12-23T13:15:44.917Z,1.57
2018-12-23T13:18:12.342Z,1.80
2018-12-23T13:20:39.829Z,1.90
2018-12-23T13:23:07.259Z,1.90
2018-12-23T13:25:34.686Z,1.62
2018-12-23T13:28:02.121Z,2.03
2018-12-23T13:30:29.566Z,1.77
2018-12-23T13:32:57.000Z,1.50
2018-12-23T13:35:24.442Z,1.70
2018-12-23T13:37:51.865Z,1.50
2018-12-23T13:40:19.310Z,1.90
2018-12-23T13:42:46.731Z,1.70
2018-12-23T13:45:14.177Z,1.90
2018-12-23T13:47:41.600Z,1.47
2018-12-23T13:50:09.038Z,1.80
2018-12-23T13:52:36.461Z,1.97
2018-12-23T13:55:03.934Z,2.50
2018-12-23T13:57:31.359Z,1.40
2018-12-23T13:59:58.813Z,1.70
2018-12-23T14:02:26.292Z,2.10
2018-12-23T14:04:53.729Z,1.85
2018-12-23T14:07:21.202Z,1.53
2018-12-23T14:09:48.659Z,1.80
2018-12-23T14:12:48.889Z,1.57
2018-12-23T14:15:17.166Z,1.83
2018-12-23T14:17:45.233Z,1.60
2018-12-23T14:20:13.414Z,1.97
2018-12-23T14:22:41.587Z,2.30
2018-12-23T14:25:09.758Z,2.10
2018-12-23T14:27:37.655Z,1.90
2018-12-23T14:30:05.801Z,2.67
2018-12-23T14:32:33.636Z,1.77
2018-12-23T14:35:01.737Z,2.00
2018-12-23T14:37:29.913Z,2.03
2018-12-23T14:39:58.006Z,2.00
2018-12-23T14:42:26.162Z,2.10
2018-12-23T14:44:53.984Z,1.73
2018-12-23T14:47:22.103Z,1.77
2018-12-23T14:49:49.935Z,1.87
2018-12-23T14:52:17.757Z,2.20
2018-12-23T14:54:45.583Z,2.13
2018-12-23T14:57:13.670Z,2.03
2018-12-23T14:59:41.862Z,2.30
2018-12-23T15:02:09.693Z,2.17
2018-12-23T15:04:37.516Z,2.67
2018-12-23T15:07:05.653Z,2.03
2018-12-23T15:09:34.425Z,2.30
2018-12-23T15:12:02.473Z,2.80
2018-12-23T15:14:30.299Z,2.67
2018-12-23T15:16:58.131Z,2.90
2018-12-23T15:19:25.944Z,3.40
2018-12-23T15:21:54.083Z,3.17
2018-12-23T15:24:21.911Z,4.50
2018-12-23T15:26:50.025Z,3.90
2018-12-23T15:29:17.844Z,2.70
2018-12-23T15:31:45.967Z,4.57
2018-12-23T15:34:13.784Z,3.40
2018-12-23T15:36:41.629Z,3.10
2018-12-23T15:39:09.780Z,3.30
2018-12-23T15:41:37.944Z,3.27
2018-12-23T15:44:06.121Z,2.83
2018-12-23T15:46:33.949Z,3.30
2018-12-23T15:49:02.061Z,3.33
2018-12-23T15:51:30.238Z,3.27
2018-12-23T15:53:58.722Z,3.97
2018-12-23T15:56:26.892Z,3.87
2018-12-23T15:58:54.713Z,4.83
2018-12-23T16:01:22.830Z,6.10
2018-12-23T16:03:51.000Z,4.57
2018-12-23T16:06:19.182Z,4.00
2018-12-23T16:08:47.355Z,3.80
2018-12-23T16:11:15.525Z,3.83
2018-12-23T16:13:43.705Z,3.20
2018-12-23T16:16:11.876Z,3.50
2018-12-23T16:18:39.951Z,3.60
2018-12-23T16:21:07.845Z,4.07
2018-12-23T16:23:35.671Z,3.40
2018-12-23T16:26:03.858Z,3.27
2018-12-23T16:28:31.665Z,3.30
2018-12-23T16:30:59.485Z,3.43
2018-12-23T16:33:27.667Z,3.70
2018-12-23T16:35:55.488Z,3.17
2018-12-23T16:38:23.392Z,3.63
2018-12-23T16:40:51.468Z,3.53
2018-12-23T16:43:19.645Z,4.70
2018-12-23T16:45:47.817Z,4.77
2018-12-23T16:48:15.649Z,9.03
2018-12-23T16:50:43.480Z,5.10
2018-12-23T16:53:11.625Z,6.77
2018-12-23T16:55:39.445Z,4.00
2018-12-23T16:58:07.276Z,3.93
2018-12-23T17:00:35.433Z,4.60
2018-12-23T17:03:03.342Z,4.70
2018-12-23T17:05:31.482Z,4.93
2018-12-23T17:07:59.317Z,5.13
2018-12-23T17:10:27.142Z,4.53
2018-12-23T17:12:55.284Z,5.80
2018-12-23T17:15:23.182Z,5.47
2018-12-23T17:17:51.015Z,4.97
2018-12-23T17:20:18.844Z,5.77
2018-12-23T17:22:46.673Z,5.87
2018-12-23T17:25:14.497Z,5.73
2018-12-23T17:27:42.589Z,6.17
2018-12-23T17:30:10.415Z,5.93
2018-12-23T17:32:38.527Z,5.73
2018-12-23T17:35:06.705Z,6.17
2018-12-23T17:37:34.536Z,7.17
2018-12-23T17:40:02.660Z,6.83
2018-12-23T17:42:30.814Z,6.60
2018-12-23T17:44:58.637Z,6.90
2018-12-23T17:47:26.468Z,7.63
2018-12-23T17:49:54.622Z,7.37
2018-12-23T17:52:23.545Z,8.40
2018-12-23T17:54:51.703Z,7.30
2018-12-23T17:57:19.862Z,6.77
2018-12-23T17:59:48.047Z,7.23
2018-12-23T18:02:15.875Z,6.60
2018-12-23T18:04:43.695Z,7.23
2018-12-23T18:07:11.847Z,7.67
2018-12-23T18:09:39.684Z,7.23
2018-12-23T18:12:07.518Z,7.43
2018-12-23T18:14:35.665Z,8.60
2018-12-23T18:17:03.666Z,11.07
2018-12-23T18:19:31.800Z,9.23
2018-12-23T18:21:59.625Z,9.60
2018-12-23T18:24:27.734Z,9.00
2018-12-23T18:26:55.558Z,7.70
2018-12-23T18:29:23.398Z,7.37
2018-12-23T18:31:51.540Z,7.33
2018-12-23T18:34:19.369Z,8.17
2018-12-23T18:36:47.480Z,7.40
2018-12-23T18:39:15.313Z,7.30
2018-12-23T18:41:43.419Z,8.40
2018-12-23T18:44:11.254Z,8.63
2018-12-23T18:46:39.085Z,8.73
2018-12-23T18:49:07.227Z,9.03
2018-12-23T18:51:35.397Z,9.17
2018-12-23T18:54:03.579Z,10.37
2018-12-23T18:56:31.769Z,9.57
2018-12-23T18:58:59.923Z,10.17
2018-12-23T19:01:28.102Z,10.27
2018-12-23T19:03:56.269Z,10.47
2018-12-23T19:06:24.102Z,10.67
2018-12-23T19:08:59.322Z,11.40
2018-12-23T19:11:21.823Z,11.17
2018-12-23T19:13:49.995Z,10.70
2018-12-23T19:16:17.837Z,11.87
2018-12-23T19:18:45.673Z,10.13
2018-12-23T19:21:13.503Z,10.53
2018-12-23T19:23:41.666Z,10.73
2018-12-23T19:26:09.844Z,10.80
2018-12-23T19:28:38.023Z,11.97
2018-12-23T19:31:06.192Z,9.60
2018-12-23T19:33:34.369Z,6.20
2018-12-23T19:36:02.866Z,6.30
2018-12-23T19:38:30.692Z,6.73
2018-12-23T19:40:58.786Z,6.87
2018-12-23T19:43:26.616Z,6.13
2018-12-23T19:45:54.724Z,5.73
2018-12-23T19:48:23.208Z,6.60
2018-12-23T19:50:51.028Z,5.87
2018-12-23T19:53:19.145Z,6.00
2018-12-23T19:55:47.218Z,5.50
2018-12-23T19:58:15.392Z,5.83
2018-12-23T20:00:43.209Z,4.73
2018-12-23T20:03:11.331Z,4.53
2018-12-23T20:05:39.150Z,4.50
2018-12-23T20:08:07.269Z,4.43
2018-12-23T20:10:35.342Z,4.50
2018-12-23T20:13:03.519Z,4.50
2018-12-23T20:15:32.945Z,4.83
2018-12-23T20:18:00.993Z,5.03
2018-12-23T20:20:29.231Z,5.70
2018-12-23T20:22:56.985Z,5.30
2018-12-23T20:25:24.812Z,5.03
2018-12-23T20:27:52.633Z,5.27
2018-12-23T20:30:20.455Z,5.47
2018-12-23T20:32:48.605Z,7.30
2018-12-23T20:35:16.441Z,6.87
2018-12-23T20:37:44.264Z,6.93
2018-12-23T20:40:12.412Z,6.17
2018-12-23T20:42:40.584Z,6.23
2018-12-23T20:45:08.765Z,7.37
2018-12-23T20:47:38.152Z,6.20
2018-12-23T20:50:06.646Z,5.80
2018-12-23T20:52:34.465Z,6.80
2018-12-23T20:55:02.584Z,6.40
2018-12-23T20:57:30.656Z,5.73
2018-12-23T20:59:58.487Z,6.10
2018-12-23T21:02:28.466Z,5.27
2018-12-23T21:04:56.632Z,6.13
2018-12-23T21:07:24.788Z,6.57
2018-12-23T21:09:52.618Z,6.17
2018-12-23T21:12:20.435Z,5.67
2018-12-23T21:14:48.592Z,6.67
2018-12-23T21:17:16.417Z,6.30
2018-12-23T21:19:44.532Z,6.93
2018-12-23T21:22:12.354Z,6.87
2018-12-23T21:24:40.180Z,6.47
2018-12-23T21:27:08.341Z,6.70
2018-12-23T21:29:36.511Z,5.50
2018-12-23T21:32:04.600Z,5.87
2018-12-23T21:34:32.425Z,5.73
2018-12-23T21:37:00.524Z,5.67
2018-12-23T21:39:28.705Z,5.40
2018-12-23T21:41:56.775Z,5.13
2018-12-23T21:44:24.598Z,4.50
2018-12-23T22:01:28.255Z,4.33
2018-12-23T22:03:56.423Z,4.70
2018-12-23T22:06:24.592Z,5.07
2018-12-23T22:08:52.782Z,4.60
2018-12-23T22:11:20.935Z,5.23
2018-12-23T22:13:49.010Z,5.20
2018-12-23T22:16:17.099Z,5.30
2018-12-23T22:18:45.257Z,7.33
2018-12-23T22:21:13.087Z,5.00
2018-12-23T22:23:41.198Z,4.50
2018-12-23T22:26:09.377Z,3.40
2018-12-23T22:28:37.192Z,3.90
2018-12-23T22:31:05.315Z,3.90
2018-12-23T22:33:33.136Z,3.33
2018-12-23T22:36:01.251Z,3.80
2018-12-23T22:38:29.065Z,2.83
2018-12-23T22:40:57.196Z,2.60
2018-12-23T22:43:25.383Z,2.47
2018-12-23T22:45:53.535Z,2.60
2018-12-23T22:48:21.609Z,1.93
2018-12-23T22:50:49.435Z,1.60
2018-12-23T22:53:17.548Z,1.73
2018-12-23T22:55:45.723Z,1.60
2018-12-23T22:58:13.538Z,2.10
2018-12-23T23:00:42.380Z,1.77
2018-12-23T23:03:10.555Z,1.50
2018-12-23T23:05:38.382Z,1.63
2018-12-23T23:08:06.200Z,1.67
2018-12-23T23:10:34.361Z,1.77
2018-12-23T23:13:02.546Z,1.97
2018-12-23T23:15:30.708Z,2.03
2018-12-23T23:17:58.527Z,1.70
2018-12-23T23:20:26.351Z,1.50
2018-12-23T23:22:54.166Z,1.63
2018-12-23T23:25:21.991Z,2.20
2018-12-23T23:27:50.147Z,1.97
2018-12-23T23:30:17.977Z,1.70
2018-12-23T23:32:45.792Z,1.53
2018-12-23T23:35:13.952Z,1.30
2018-12-23T23:37:42.129Z,1.20
2018-12-23T23:40:10.305Z,1.20
2018-12-23T23:42:38.124Z,1.00
2018-12-23T23:45:05.961Z,1.00
2018-12-23T23:47:34.109Z,1.00
2018-12-23T23:50:01.935Z,1.10
2018-12-23T23:52:29.755Z,1.17
2018-12-23T23:54:57.935Z,0.80
2018-12-23T23:57:25.755Z,1.10
2018-12-23T23:59:53.858Z,1.17
